sensor_id;sensor_type;location;lat;lon;timestamp;P1;durP1;ratioP1;P2;durP2;ratioP2
39674;SDS011;27790;50.840;4.386;2022-08-11T00:01:25;5.80;;;2.17;;
39674;SDS011;27790;50.840;4.386;2022-08-11T00:03:53;4.25;;;2.45;;
39674;SDS011;27790;50.840;4.386;2022-08-11T00:06:28;5.97;;;1.88;;
39674;SDS011;27790;50.840;4.386;2022-08-11T00:08:56;5.90;;;1.98;;
39674;SDS011;27790;50.840;4.386;2022-08-11T00:14:02;5.40;;;2.10;;
39674;SDS011;27790;50.840;4.386;2022-08-11T00:16:29;3.15;;;1.90;;
39674;SDS011;27790;50.840;4.386;2022-08-11T00:18:56;4.47;;;2.08;;
39674;SDS011;27790;50.840;4.386;2022-08-11T00:21:24;5.25;;;2.10;;
39674;SDS011;27790;50.840;4.386;2022-08-11T00:23:55;4.97;;;1.80;;
39674;SDS011;27790;50.840;4.386;2022-08-11T00:26:24;5.70;;;2.10;;
39674;SDS011;27790;50.840;4.386;2022-08-11T00:28:51;6.65;;;2.30;;
39674;SDS011;27790;50.840;4.386;2022-08-11T00:33:48;2.30;;;1.67;;
39674;SDS011;27790;50.840;4.386;2022-08-11T00:36:16;2.75;;;2.10;;
39674;SDS011;27790;50.840;4.386;2022-08-11T00:38:44;2.80;;;2.20;;
39674;SDS011;27790;50.840;4.386;2022-08-11T00:49:23;5.22;;;2.22;;
39674;SDS011;27790;50.840;4.386;2022-08-11T01:10:47;6.60;;;1.98;;
39674;SDS011;27790;50.840;4.386;2022-08-11T01:13:38;7.68;;;1.77;;
39674;SDS011;27790;50.840;4.386;2022-08-11T01:24:38;4.18;;;2.28;;
39674;SDS011;27790;50.840;4.386;2022-08-11T01:30:19;4.45;;;2.08;;
39674;SDS011;27790;50.840;4.386;2022-08-11T01:33:09;5.25;;;1.95;;
39674;SDS011;27790;50.840;4.386;2022-08-11T01:35:46;3.92;;;2.10;;
39674;SDS011;27790;50.840;4.386;2022-08-11T01:39:05;3.13;;;2.10;;
39674;SDS011;27790;50.840;4.386;2022-08-11T01:44:29;3.80;;;2.45;;
39674;SDS011;27790;50.840;4.386;2022-08-11T01:50:02;6.95;;;2.05;;
39674;SDS011;27790;50.840;4.386;2022-08-11T01:58:29;4.20;;;1.88;;
39674;SDS011;27790;50.840;4.386;2022-08-11T02:09:23;6.45;;;2.28;;
39674;SDS011;27790;50.840;4.386;2022-08-11T02:11:51;6.55;;;2.60;;
39674;SDS011;27790;50.840;4.386;2022-08-11T02:14:27;4.95;;;2.10;;
39674;SDS011;27790;50.840;4.386;2022-08-11T02:17:03;5.80;;;2.22;;
39674;SDS011;27790;50.840;4.386;2022-08-11T02:25:29;3.40;;;2.00;;
39674;SDS011;27790;50.840;4.386;2022-08-11T02:28:04;4.30;;;2.00;;
39674;SDS011;27790;50.840;4.386;2022-08-11T02:30:34;6.57;;;2.70;;
39674;SDS011;27790;50.840;4.386;2022-08-11T02:33:15;6.97;;;2.30;;
39674;SDS011;27790;50.840;4.386;2022-08-11T02:38:32;3.47;;;2.25;;
39674;SDS011;27790;50.840;4.386;2022-08-11T02:46:47;3.83;;;2.10;;
39674;SDS011;27790;50.840;4.386;2022-08-11T02:49:17;7.93;;;2.93;;
39674;SDS011;27790;50.840;4.386;2022-08-11T02:52:21;5.80;;;2.55;;
39674;SDS011;27790;50.840;4.386;2022-08-11T03:00:48;3.40;;;2.67;;
39674;SDS011;27790;50.840;4.386;2022-08-11T03:03:24;2.72;;;2.28;;
39674;SDS011;27790;50.840;4.386;2022-08-11T03:06:05;4.70;;;2.35;;
39674;SDS011;27790;50.840;4.386;2022-08-11T03:08:48;3.65;;;2.47;;
39674;SDS011;27790;50.840;4.386;2022-08-11T03:11:30;5.47;;;2.65;;
39674;SDS011;27790;50.840;4.386;2022-08-11T03:22:45;4.97;;;2.40;;
39674;SDS011;27790;50.840;4.386;2022-08-11T03:25:21;8.10;;;2.67;;
39674;SDS011;27790;50.840;4.386;2022-08-11T03:30:38;5.57;;;2.88;;
39674;SDS011;27790;50.840;4.386;2022-08-11T03:36:08;3.65;;;2.35;;
39674;SDS011;27790;50.840;4.386;2022-08-11T03:41:32;5.03;;;2.70;;
39674;SDS011;27790;50.840;4.386;2022-08-11T03:44:31;4.60;;;2.80;;
39674;SDS011;27790;50.840;4.386;2022-08-11T03:52:48;5.35;;;2.88;;
39674;SDS011;27790;50.840;4.386;2022-08-11T04:28:23;4.50;;;2.30;;
39674;SDS011;27790;50.840;4.386;2022-08-11T04:33:58;5.22;;;2.83;;
39674;SDS011;27790;50.840;4.386;2022-08-11T04:50:21;6.07;;;2.83;;
39674;SDS011;27790;50.840;4.386;2022-08-11T04:56:10;7.18;;;2.40;;
39674;SDS011;27790;50.840;4.386;2022-08-11T05:12:35;14.50;;;3.10;;
39674;SDS011;27790;50.840;4.386;2022-08-11T05:15:10;3.50;;;2.83;;
39674;SDS011;27790;50.840;4.386;2022-08-11T05:20:48;7.05;;;2.80;;
39674;SDS011;27790;50.840;4.386;2022-08-11T05:23:26;6.03;;;3.38;;
39674;SDS011;27790;50.840;4.386;2022-08-11T05:26:04;7.65;;;3.10;;
39674;SDS011;27790;50.840;4.386;2022-08-11T05:28:53;7.88;;;3.65;;
39674;SDS011;27790;50.840;4.386;2022-08-11T05:31:35;11.48;;;3.45;;
39674;SDS011;27790;50.840;4.386;2022-08-11T05:34:16;6.68;;;3.70;;
39674;SDS011;27790;50.840;4.386;2022-08-11T05:37:46;6.57;;;4.18;;
39674;SDS011;27790;50.840;4.386;2022-08-11T05:39:55;7.03;;;3.33;;
39674;SDS011;27790;50.840;4.386;2022-08-11T05:42:37;14.55;;;3.50;;
39674;SDS011;27790;50.840;4.386;2022-08-11T05:45:17;5.43;;;3.25;;
39674;SDS011;27790;50.840;4.386;2022-08-11T05:47:53;5.10;;;3.38;;
39674;SDS011;27790;50.840;4.386;2022-08-11T05:50:30;17.52;;;3.30;;
39674;SDS011;27790;50.840;4.386;2022-08-11T05:53:08;15.63;;;4.30;;
39674;SDS011;27790;50.840;4.386;2022-08-11T05:55:46;18.95;;;4.05;;
39674;SDS011;27790;50.840;4.386;2022-08-11T05:58:24;7.55;;;3.28;;
39674;SDS011;27790;50.840;4.386;2022-08-11T06:00:55;14.18;;;3.70;;
39674;SDS011;27790;50.840;4.386;2022-08-11T06:03:28;11.20;;;3.40;;
39674;SDS011;27790;50.840;4.386;2022-08-11T06:05:57;7.78;;;3.50;;
39674;SDS011;27790;50.840;4.386;2022-08-11T06:08:26;7.18;;;3.90;;
39674;SDS011;27790;50.840;4.386;2022-08-11T06:11:00;7.57;;;3.00;;
39674;SDS011;27790;50.840;4.386;2022-08-11T06:13:29;9.85;;;3.65;;
39674;SDS011;27790;50.840;4.386;2022-08-11T06:15:55;9.73;;;3.67;;
39674;SDS011;27790;50.840;4.386;2022-08-11T06:18:22;12.88;;;3.10;;
39674;SDS011;27790;50.840;4.386;2022-08-11T06:20:53;8.15;;;3.55;;
39674;SDS011;27790;50.840;4.386;2022-08-11T06:23:21;13.57;;;4.35;;
39674;SDS011;27790;50.840;4.386;2022-08-11T06:25:52;10.90;;;3.53;;
39674;SDS011;27790;50.840;4.386;2022-08-11T06:28:19;9.55;;;3.83;;
39674;SDS011;27790;50.840;4.386;2022-08-11T06:30:57;13.25;;;3.97;;
39674;SDS011;27790;50.840;4.386;2022-08-11T06:38:59;6.20;;;3.55;;
39674;SDS011;27790;50.840;4.386;2022-08-11T06:46:42;5.88;;;3.40;;
39674;SDS011;27790;50.840;4.386;2022-08-11T06:49:13;5.38;;;3.25;;
39674;SDS011;27790;50.840;4.386;2022-08-11T06:51:51;7.85;;;3.42;;
39674;SDS011;27790;50.840;4.386;2022-08-11T06:54:18;10.88;;;3.78;;
39674;SDS011;27790;50.840;4.386;2022-08-11T06:56:45;11.60;;;3.55;;
39674;SDS011;27790;50.840;4.386;2022-08-11T06:59:22;10.70;;;3.85;;
39674;SDS011;27790;50.840;4.386;2022-08-11T07:04:47;17.65;;;3.60;;
39674;SDS011;27790;50.840;4.386;2022-08-11T07:13:17;8.20;;;4.07;;
39674;SDS011;27790;50.840;4.386;2022-08-11T07:15:56;3.90;;;3.28;;
39674;SDS011;27790;50.840;4.386;2022-08-11T07:18:27;7.28;;;3.80;;
39674;SDS011;27790;50.840;4.386;2022-08-11T07:21:14;7.68;;;3.50;;
39674;SDS011;27790;50.840;4.386;2022-08-11T07:23:57;7.82;;;3.72;;
39674;SDS011;27790;50.840;4.386;2022-08-11T07:26:37;6.55;;;3.67;;
39674;SDS011;27790;50.840;4.386;2022-08-11T07:29:18;7.82;;;3.90;;
39674;SDS011;27790;50.840;4.386;2022-08-11T07:31:47;6.05;;;3.60;;
39674;SDS011;27790;50.840;4.386;2022-08-11T07:34:20;9.73;;;4.13;;
39674;SDS011;27790;50.840;4.386;2022-08-11T07:39:21;7.60;;;3.60;;
39674;SDS011;27790;50.840;4.386;2022-08-11T07:41:50;6.97;;;3.33;;
39674;SDS011;27790;50.840;4.386;2022-08-11T07:44:17;5.78;;;3.63;;
39674;SDS011;27790;50.840;4.386;2022-08-11T07:46:45;6.78;;;3.38;;
39674;SDS011;27790;50.840;4.386;2022-08-11T07:49:24;13.98;;;3.30;;
39674;SDS011;27790;50.840;4.386;2022-08-11T07:52:02;15.27;;;3.75;;
39674;SDS011;27790;50.840;4.386;2022-08-11T07:54:39;7.18;;;3.50;;
39674;SDS011;27790;50.840;4.386;2022-08-11T07:57:08;11.27;;;3.80;;
39674;SDS011;27790;50.840;4.386;2022-08-11T07:59:46;6.43;;;3.60;;
39674;SDS011;27790;50.840;4.386;2022-08-11T08:02:22;5.88;;;3.53;;
39674;SDS011;27790;50.840;4.386;2022-08-11T08:04:59;7.45;;;3.80;;
39674;SDS011;27790;50.840;4.386;2022-08-11T08:07:36;13.25;;;3.75;;
39674;SDS011;27790;50.840;4.386;2022-08-11T08:10:13;7.88;;;3.45;;
39674;SDS011;27790;50.840;4.386;2022-08-11T08:12:53;6.93;;;3.72;;
39674;SDS011;27790;50.840;4.386;2022-08-11T08:15:31;5.80;;;3.40;;
39674;SDS011;27790;50.840;4.386;2022-08-11T08:18:07;4.65;;;3.88;;
39674;SDS011;27790;50.840;4.386;2022-08-11T08:23:04;3.90;;;3.28;;
39674;SDS011;27790;50.840;4.386;2022-08-11T08:25:31;6.10;;;3.63;;
39674;SDS011;27790;50.840;4.386;2022-08-11T08:27:59;5.80;;;3.70;;
39674;SDS011;27790;50.840;4.386;2022-08-11T08:30:29;8.15;;;3.58;;
39674;SDS011;27790;50.840;4.386;2022-08-11T08:33:06;10.85;;;3.92;;
39674;SDS011;27790;50.840;4.386;2022-08-11T08:35:33;7.78;;;3.30;;
39674;SDS011;27790;50.840;4.386;2022-08-11T08:38:00;11.93;;;4.43;;
39674;SDS011;27790;50.840;4.386;2022-08-11T08:40:27;10.85;;;4.60;;
39674;SDS011;27790;50.840;4.386;2022-08-11T08:42:54;10.80;;;4.60;;
39674;SDS011;27790;50.840;4.386;2022-08-11T08:45:22;12.85;;;3.78;;
39674;SDS011;27790;50.840;4.386;2022-08-11T08:50:26;11.65;;;3.42;;
39674;SDS011;27790;50.840;4.386;2022-08-11T08:53:16;3.75;;;3.30;;
39674;SDS011;27790;50.840;4.386;2022-08-11T08:55:46;12.48;;;4.05;;
39674;SDS011;27790;50.840;4.386;2022-08-11T08:58:15;11.35;;;3.38;;
39674;SDS011;27790;50.840;4.386;2022-08-11T09:00:43;14.15;;;4.10;;
39674;SDS011;27790;50.840;4.386;2022-08-11T09:03:10;10.38;;;3.80;;
39674;SDS011;27790;50.840;4.386;2022-08-11T09:05:37;10.88;;;3.83;;
39674;SDS011;27790;50.840;4.386;2022-08-11T09:08:04;11.07;;;3.38;;
39674;SDS011;27790;50.840;4.386;2022-08-11T09:10:33;6.30;;;3.22;;
39674;SDS011;27790;50.840;4.386;2022-08-11T09:13:02;7.00;;;3.47;;
39674;SDS011;27790;50.840;4.386;2022-08-11T09:15:30;8.07;;;3.78;;
39674;SDS011;27790;50.840;4.386;2022-08-11T09:18:19;3.78;;;3.20;;
39674;SDS011;27790;50.840;4.386;2022-08-11T09:20:45;8.95;;;3.60;;
39674;SDS011;27790;50.840;4.386;2022-08-11T09:23:11;6.32;;;3.30;;
39674;SDS011;27790;50.840;4.386;2022-08-11T09:25:50;4.10;;;3.65;;
39674;SDS011;27790;50.840;4.386;2022-08-11T09:28:30;8.13;;;3.95;;
39674;SDS011;27790;50.840;4.386;2022-08-11T09:30:57;6.85;;;3.78;;
39674;SDS011;27790;50.840;4.386;2022-08-11T09:33:25;7.45;;;3.47;;
39674;SDS011;27790;50.840;4.386;2022-08-11T09:35:53;5.78;;;3.55;;
39674;SDS011;27790;50.840;4.386;2022-08-11T09:38:20;5.30;;;3.40;;
39674;SDS011;27790;50.840;4.386;2022-08-11T09:41:01;10.13;;;3.70;;
39674;SDS011;27790;50.840;4.386;2022-08-11T09:43:29;7.30;;;3.95;;
39674;SDS011;27790;50.840;4.386;2022-08-11T09:46:08;10.00;;;3.28;;
39674;SDS011;27790;50.840;4.386;2022-08-11T09:48:43;11.18;;;3.97;;
39674;SDS011;27790;50.840;4.386;2022-08-11T09:51:10;3.65;;;3.30;;
39674;SDS011;27790;50.840;4.386;2022-08-11T09:53:41;4.45;;;3.58;;
39674;SDS011;27790;50.840;4.386;2022-08-11T09:56:09;7.47;;;3.20;;
39674;SDS011;27790;50.840;4.386;2022-08-11T09:58:54;8.63;;;3.58;;
39674;SDS011;27790;50.840;4.386;2022-08-11T10:01:20;14.88;;;4.40;;
39674;SDS011;27790;50.840;4.386;2022-08-11T10:03:54;10.20;;;3.87;;
39674;SDS011;27790;50.840;4.386;2022-08-11T10:06:24;9.00;;;3.90;;
39674;SDS011;27790;50.840;4.386;2022-08-11T10:09:03;7.10;;;3.60;;
39674;SDS011;27790;50.840;4.386;2022-08-11T10:11:30;10.00;;;3.60;;
39674;SDS011;27790;50.840;4.386;2022-08-11T10:14:00;10.18;;;3.60;;
39674;SDS011;27790;50.840;4.386;2022-08-11T10:16:40;5.90;;;3.95;;
39674;SDS011;27790;50.840;4.386;2022-08-11T10:19:07;9.15;;;3.40;;
39674;SDS011;27790;50.840;4.386;2022-08-11T10:24:07;9.27;;;3.30;;
39674;SDS011;27790;50.840;4.386;2022-08-11T10:26:46;16.23;;;3.63;;
39674;SDS011;27790;50.840;4.386;2022-08-11T10:29:23;5.07;;;3.08;;
39674;SDS011;27790;50.840;4.386;2022-08-11T10:32:00;13.52;;;3.97;;
39674;SDS011;27790;50.840;4.386;2022-08-11T10:34:38;6.05;;;3.55;;
39674;SDS011;27790;50.840;4.386;2022-08-11T10:37:05;6.95;;;3.45;;
39674;SDS011;27790;50.840;4.386;2022-08-11T10:39:31;4.63;;;3.78;;
39674;SDS011;27790;50.840;4.386;2022-08-11T10:42:01;8.15;;;3.53;;
39674;SDS011;27790;50.840;4.386;2022-08-11T10:44:40;8.05;;;3.78;;
39674;SDS011;27790;50.840;4.386;2022-08-11T10:47:09;6.65;;;3.58;;
39674;SDS011;27790;50.840;4.386;2022-08-11T10:49:47;12.45;;;3.80;;
39674;SDS011;27790;50.840;4.386;2022-08-11T10:52:33;5.57;;;3.95;;
39674;SDS011;27790;50.840;4.386;2022-08-11T10:55:11;5.40;;;3.25;;
39674;SDS011;27790;50.840;4.386;2022-08-11T10:57:48;13.20;;;3.88;;
39674;SDS011;27790;50.840;4.386;2022-08-11T11:00:24;4.60;;;3.72;;
39674;SDS011;27790;50.840;4.386;2022-08-11T11:02:51;7.80;;;4.20;;
39674;SDS011;27790;50.840;4.386;2022-08-11T11:05:25;5.63;;;4.53;;
39674;SDS011;27790;50.840;4.386;2022-08-11T11:08:05;11.38;;;3.10;;
39674;SDS011;27790;50.840;4.386;2022-08-11T11:10:56;4.95;;;3.40;;
39674;SDS011;27790;50.840;4.386;2022-08-11T11:13:23;10.10;;;3.38;;
39674;SDS011;27790;50.840;4.386;2022-08-11T11:16:01;9.43;;;4.00;;
39674;SDS011;27790;50.840;4.386;2022-08-11T11:18:37;5.43;;;3.42;;
39674;SDS011;27790;50.840;4.386;2022-08-11T11:23:45;7.40;;;3.25;;
39674;SDS011;27790;50.840;4.386;2022-08-11T11:26:30;9.68;;;3.03;;
39674;SDS011;27790;50.840;4.386;2022-08-11T11:37:12;4.43;;;3.25;;
39674;SDS011;27790;50.840;4.386;2022-08-11T11:39:40;4.28;;;3.45;;
39674;SDS011;27790;50.840;4.386;2022-08-11T11:42:08;8.40;;;3.67;;
39674;SDS011;27790;50.840;4.386;2022-08-11T11:44:38;4.63;;;3.00;;
39674;SDS011;27790;50.840;4.386;2022-08-11T11:47:07;7.00;;;3.17;;
39674;SDS011;27790;50.840;4.386;2022-08-11T11:49:35;16.05;;;4.03;;
39674;SDS011;27790;50.840;4.386;2022-08-11T11:52:03;8.63;;;3.58;;
39674;SDS011;27790;50.840;4.386;2022-08-11T11:54:32;5.38;;;3.15;;
39674;SDS011;27790;50.840;4.386;2022-08-11T11:57:00;3.97;;;3.45;;
39674;SDS011;27790;50.840;4.386;2022-08-11T11:59:39;6.07;;;2.90;;
39674;SDS011;27790;50.840;4.386;2022-08-11T12:02:15;10.35;;;3.85;;
39674;SDS011;27790;50.840;4.386;2022-08-11T12:04:41;3.38;;;3.03;;
39674;SDS011;27790;50.840;4.386;2022-08-11T12:07:09;9.63;;;2.80;;
39674;SDS011;27790;50.840;4.386;2022-08-11T12:09:45;7.35;;;3.53;;
39674;SDS011;27790;50.840;4.386;2022-08-11T12:12:12;6.38;;;3.45;;
39674;SDS011;27790;50.840;4.386;2022-08-11T12:14:49;7.88;;;2.63;;
39674;SDS011;27790;50.840;4.386;2022-08-11T12:17:15;5.95;;;3.08;;
39674;SDS011;27790;50.840;4.386;2022-08-11T12:19:41;10.90;;;3.10;;
39674;SDS011;27790;50.840;4.386;2022-08-11T12:22:06;5.88;;;3.20;;
39674;SDS011;27790;50.840;4.386;2022-08-11T12:24:44;8.23;;;3.15;;
39674;SDS011;27790;50.840;4.386;2022-08-11T12:27:22;5.22;;;2.70;;
39674;SDS011;27790;50.840;4.386;2022-08-11T12:29:54;3.78;;;2.75;;
39674;SDS011;27790;50.840;4.386;2022-08-11T12:32:24;5.22;;;3.17;;
39674;SDS011;27790;50.840;4.386;2022-08-11T12:34:52;3.83;;;3.28;;
39674;SDS011;27790;50.840;4.386;2022-08-11T12:37:31;5.55;;;3.33;;
39674;SDS011;27790;50.840;4.386;2022-08-11T12:40:06;5.57;;;3.00;;
39674;SDS011;27790;50.840;4.386;2022-08-11T12:42:46;6.72;;;2.75;;
39674;SDS011;27790;50.840;4.386;2022-08-11T12:45:24;4.00;;;2.78;;
39674;SDS011;27790;50.840;4.386;2022-08-11T12:47:51;4.40;;;2.75;;
39674;SDS011;27790;50.840;4.386;2022-08-11T12:50:50;3.42;;;3.13;;
39674;SDS011;27790;50.840;4.386;2022-08-11T12:53:30;6.90;;;2.85;;
39674;SDS011;27790;50.840;4.386;2022-08-11T12:56:01;5.05;;;2.95;;
39674;SDS011;27790;50.840;4.386;2022-08-11T12:58:40;7.13;;;2.78;;
39674;SDS011;27790;50.840;4.386;2022-08-11T13:01:07;3.03;;;2.70;;
39674;SDS011;27790;50.840;4.386;2022-08-11T13:03:45;7.22;;;2.75;;
39674;SDS011;27790;50.840;4.386;2022-08-11T13:06:22;5.97;;;2.95;;
39674;SDS011;27790;50.840;4.386;2022-08-11T13:08:49;6.30;;;2.45;;
39674;SDS011;27790;50.840;4.386;2022-08-11T13:11:16;5.18;;;2.83;;
39674;SDS011;27790;50.840;4.386;2022-08-11T13:13:53;3.90;;;3.10;;
39674;SDS011;27790;50.840;4.386;2022-08-11T13:16:28;3.42;;;3.13;;
39674;SDS011;27790;50.840;4.386;2022-08-11T13:18:56;5.47;;;2.75;;
39674;SDS011;27790;50.840;4.386;2022-08-11T13:21:24;2.65;;;2.45;;
39674;SDS011;27790;50.840;4.386;2022-08-11T13:23:51;2.67;;;2.55;;
39674;SDS011;27790;50.840;4.386;2022-08-11T13:26:18;3.00;;;2.70;;
39674;SDS011;27790;50.840;4.386;2022-08-11T13:28:45;4.38;;;2.88;;
39674;SDS011;27790;50.840;4.386;2022-08-11T13:31:11;4.75;;;2.60;;
39674;SDS011;27790;50.840;4.386;2022-08-11T13:33:43;6.78;;;2.75;;
39674;SDS011;27790;50.840;4.386;2022-08-11T13:38:44;5.25;;;2.60;;
39674;SDS011;27790;50.840;4.386;2022-08-11T13:41:10;4.35;;;2.42;;
39674;SDS011;27790;50.840;4.386;2022-08-11T13:43:46;4.43;;;2.60;;
39674;SDS011;27790;50.840;4.386;2022-08-11T13:46:11;5.63;;;2.58;;
39674;SDS011;27790;50.840;4.386;2022-08-11T13:48:44;4.80;;;2.60;;
39674;SDS011;27790;50.840;4.386;2022-08-11T13:51:10;3.72;;;2.45;;
39674;SDS011;27790;50.840;4.386;2022-08-11T13:53:47;7.30;;;3.08;;
39674;SDS011;27790;50.840;4.386;2022-08-11T13:56:13;3.95;;;2.95;;
39674;SDS011;27790;50.840;4.386;2022-08-11T13:58:39;5.97;;;2.55;;
39674;SDS011;27790;50.840;4.386;2022-08-11T14:01:05;6.85;;;3.17;;
39674;SDS011;27790;50.840;4.386;2022-08-11T14:03:31;4.25;;;2.85;;
39674;SDS011;27790;50.840;4.386;2022-08-11T14:05:58;3.78;;;2.80;;
39674;SDS011;27790;50.840;4.386;2022-08-11T14:08:29;3.47;;;2.97;;
39674;SDS011;27790;50.840;4.386;2022-08-11T14:11:00;5.57;;;3.15;;
39674;SDS011;27790;50.840;4.386;2022-08-11T14:13:39;10.13;;;3.10;;
39674;SDS011;27790;50.840;4.386;2022-08-11T14:16:15;5.38;;;2.67;;
39674;SDS011;27790;50.840;4.386;2022-08-11T14:18:45;6.32;;;3.30;;
39674;SDS011;27790;50.840;4.386;2022-08-11T14:21:14;10.13;;;3.30;;
39674;SDS011;27790;50.840;4.386;2022-08-11T14:23:53;8.30;;;2.72;;
39674;SDS011;27790;50.840;4.386;2022-08-11T14:26:19;3.28;;;2.95;;
39674;SDS011;27790;50.840;4.386;2022-08-11T14:31:21;8.43;;;3.60;;
39674;SDS011;27790;50.840;4.386;2022-08-11T14:33:49;7.28;;;3.22;;
39674;SDS011;27790;50.840;4.386;2022-08-11T14:36:22;7.38;;;2.83;;
39674;SDS011;27790;50.840;4.386;2022-08-11T14:38:50;7.88;;;3.15;;
39674;SDS011;27790;50.840;4.386;2022-08-11T14:41:17;6.15;;;2.95;;
39674;SDS011;27790;50.840;4.386;2022-08-11T14:43:54;5.18;;;2.97;;
39674;SDS011;27790;50.840;4.386;2022-08-11T14:46:32;12.13;;;2.95;;
39674;SDS011;27790;50.840;4.386;2022-08-11T14:49:09;7.78;;;3.05;;
39674;SDS011;27790;50.840;4.386;2022-08-11T14:51:36;7.95;;;3.10;;
39674;SDS011;27790;50.840;4.386;2022-08-11T14:54:03;6.80;;;3.20;;
39674;SDS011;27790;50.840;4.386;2022-08-11T14:56:38;3.55;;;3.22;;
39674;SDS011;27790;50.840;4.386;2022-08-11T14:59:05;5.97;;;3.22;;
39674;SDS011;27790;50.840;4.386;2022-08-11T15:01:31;3.95;;;3.50;;
39674;SDS011;27790;50.840;4.386;2022-08-11T15:04:08;5.57;;;3.25;;
39674;SDS011;27790;50.840;4.386;2022-08-11T15:06:34;3.40;;;3.13;;
39674;SDS011;27790;50.840;4.386;2022-08-11T15:09:00;6.90;;;3.22;;
39674;SDS011;27790;50.840;4.386;2022-08-11T15:11:28;5.75;;;3.80;;
39674;SDS011;27790;50.840;4.386;2022-08-11T15:14:05;4.68;;;3.25;;
39674;SDS011;27790;50.840;4.386;2022-08-11T15:16:35;4.78;;;3.08;;
39674;SDS011;27790;50.840;4.386;2022-08-11T15:19:12;7.00;;;3.00;;
39674;SDS011;27790;50.840;4.386;2022-08-11T15:21:39;3.90;;;3.60;;
39674;SDS011;27790;50.840;4.386;2022-08-11T15:24:16;7.95;;;3.45;;
39674;SDS011;27790;50.840;4.386;2022-08-11T15:26:44;6.53;;;3.30;;
39674;SDS011;27790;50.840;4.386;2022-08-11T15:29:24;9.95;;;4.28;;
39674;SDS011;27790;50.840;4.386;2022-08-11T15:32:04;3.88;;;3.55;;
39674;SDS011;27790;50.840;4.386;2022-08-11T15:34:44;4.18;;;3.38;;
39674;SDS011;27790;50.840;4.386;2022-08-11T15:37:25;7.10;;;3.67;;
39674;SDS011;27790;50.840;4.386;2022-08-11T15:40:01;4.55;;;3.03;;
39674;SDS011;27790;50.840;4.386;2022-08-11T15:42:49;6.13;;;3.17;;
39674;SDS011;27790;50.840;4.386;2022-08-11T15:45:27;7.03;;;3.45;;
39674;SDS011;27790;50.840;4.386;2022-08-11T15:48:07;7.95;;;3.40;;
39674;SDS011;27790;50.840;4.386;2022-08-11T15:50:38;4.95;;;3.15;;
39674;SDS011;27790;50.840;4.386;2022-08-11T15:58:15;8.10;;;3.40;;
39674;SDS011;27790;50.840;4.386;2022-08-11T16:00:54;5.28;;;3.10;;
39674;SDS011;27790;50.840;4.386;2022-08-11T16:03:34;3.25;;;2.92;;
39674;SDS011;27790;50.840;4.386;2022-08-11T16:06:17;6.50;;;3.42;;
39674;SDS011;27790;50.840;4.386;2022-08-11T16:08:44;6.90;;;3.05;;
39674;SDS011;27790;50.840;4.386;2022-08-11T16:11:11;11.52;;;3.55;;
39674;SDS011;27790;50.840;4.386;2022-08-11T16:13:38;7.30;;;3.28;;
39674;SDS011;27790;50.840;4.386;2022-08-11T16:16:05;5.65;;;2.90;;
39674;SDS011;27790;50.840;4.386;2022-08-11T16:18:42;8.88;;;3.03;;
39674;SDS011;27790;50.840;4.386;2022-08-11T16:21:19;6.53;;;2.85;;
39674;SDS011;27790;50.840;4.386;2022-08-11T16:23:48;8.40;;;3.53;;
39674;SDS011;27790;50.840;4.386;2022-08-11T16:26:18;7.47;;;3.03;;
39674;SDS011;27790;50.840;4.386;2022-08-11T16:28:51;3.37;;;3.00;;
39674;SDS011;27790;50.840;4.386;2022-08-11T16:31:21;5.05;;;3.00;;
39674;SDS011;27790;50.840;4.386;2022-08-11T16:33:49;5.22;;;3.35;;
39674;SDS011;27790;50.840;4.386;2022-08-11T16:36:17;6.63;;;2.95;;
39674;SDS011;27790;50.840;4.386;2022-08-11T16:38:56;4.60;;;2.65;;
39674;SDS011;27790;50.840;4.386;2022-08-11T16:41:24;4.90;;;3.20;;
39674;SDS011;27790;50.840;4.386;2022-08-11T16:44:04;5.43;;;2.90;;
39674;SDS011;27790;50.840;4.386;2022-08-11T16:46:41;7.50;;;3.15;;
39674;SDS011;27790;50.840;4.386;2022-08-11T16:49:20;9.27;;;2.92;;
39674;SDS011;27790;50.840;4.386;2022-08-11T16:51:50;8.45;;;2.92;;
39674;SDS011;27790;50.840;4.386;2022-08-11T16:54:16;6.00;;;2.70;;
39674;SDS011;27790;50.840;4.386;2022-08-11T16:56:44;3.40;;;2.63;;
39674;SDS011;27790;50.840;4.386;2022-08-11T16:59:17;7.20;;;2.83;;
39674;SDS011;27790;50.840;4.386;2022-08-11T17:01:49;3.20;;;2.90;;
39674;SDS011;27790;50.840;4.386;2022-08-11T17:04:26;2.63;;;2.42;;
39674;SDS011;27790;50.840;4.386;2022-08-11T17:07:15;9.90;;;3.08;;
39674;SDS011;27790;50.840;4.386;2022-08-11T17:09:55;10.18;;;3.10;;
39674;SDS011;27790;50.840;4.386;2022-08-11T17:12:35;5.43;;;2.50;;
39674;SDS011;27790;50.840;4.386;2022-08-11T17:15:16;19.30;;;3.30;;
39674;SDS011;27790;50.840;4.386;2022-08-11T17:17:55;7.53;;;2.60;;
39674;SDS011;27790;50.840;4.386;2022-08-11T17:20:22;8.50;;;2.80;;
39674;SDS011;27790;50.840;4.386;2022-08-11T17:22:49;6.72;;;2.90;;
39674;SDS011;27790;50.840;4.386;2022-08-11T17:25:27;9.02;;;3.05;;
39674;SDS011;27790;50.840;4.386;2022-08-11T17:27:55;7.70;;;2.70;;
39674;SDS011;27790;50.840;4.386;2022-08-11T17:30:23;10.95;;;2.90;;
39674;SDS011;27790;50.840;4.386;2022-08-11T17:33:11;5.82;;;3.30;;
39674;SDS011;27790;50.840;4.386;2022-08-11T17:35:47;10.30;;;2.80;;
39674;SDS011;27790;50.840;4.386;2022-08-11T17:40:44;4.55;;;2.42;;
39674;SDS011;27790;50.840;4.386;2022-08-11T17:43:29;8.70;;;3.13;;
39674;SDS011;27790;50.840;4.386;2022-08-11T17:46:07;9.23;;;3.25;;
39674;SDS011;27790;50.840;4.386;2022-08-11T17:48:42;6.70;;;3.75;;
39674;SDS011;27790;50.840;4.386;2022-08-11T17:51:11;4.13;;;3.00;;
39674;SDS011;27790;50.840;4.386;2022-08-11T17:54:02;9.57;;;3.30;;
39674;SDS011;27790;50.840;4.386;2022-08-11T17:56:41;10.55;;;3.33;;
39674;SDS011;27790;50.840;4.386;2022-08-11T17:59:17;8.52;;;3.03;;
39674;SDS011;27790;50.840;4.386;2022-08-11T18:01:55;3.80;;;3.25;;
39674;SDS011;27790;50.840;4.386;2022-08-11T18:04:44;7.78;;;3.47;;
39674;SDS011;27790;50.840;4.386;2022-08-11T18:07:13;5.80;;;3.05;;
39674;SDS011;27790;50.840;4.386;2022-08-11T18:09:52;8.13;;;3.97;;
39674;SDS011;27790;50.840;4.386;2022-08-11T18:12:29;9.25;;;3.30;;
39674;SDS011;27790;50.840;4.386;2022-08-11T18:15:06;5.40;;;3.35;;
39674;SDS011;27790;50.840;4.386;2022-08-11T18:17:43;6.72;;;3.45;;
39674;SDS011;27790;50.840;4.386;2022-08-11T18:20:19;10.00;;;2.97;;
39674;SDS011;27790;50.840;4.386;2022-08-11T18:22:57;7.15;;;4.07;;
39674;SDS011;27790;50.840;4.386;2022-08-11T18:25:38;7.70;;;3.35;;
39674;SDS011;27790;50.840;4.386;2022-08-11T18:28:26;9.38;;;4.03;;
39674;SDS011;27790;50.840;4.386;2022-08-11T18:31:08;7.22;;;3.50;;
39674;SDS011;27790;50.840;4.386;2022-08-11T18:33:50;10.63;;;4.05;;
39674;SDS011;27790;50.840;4.386;2022-08-11T18:36:28;5.50;;;3.75;;
39674;SDS011;27790;50.840;4.386;2022-08-11T18:39:09;5.18;;;3.05;;
39674;SDS011;27790;50.840;4.386;2022-08-11T18:41:48;14.60;;;3.67;;
39674;SDS011;27790;50.840;4.386;2022-08-11T18:44:27;5.32;;;3.22;;
39674;SDS011;27790;50.840;4.386;2022-08-11T18:47:07;8.73;;;3.33;;
39674;SDS011;27790;50.840;4.386;2022-08-11T18:49:48;9.35;;;4.13;;
39674;SDS011;27790;50.840;4.386;2022-08-11T18:52:28;5.65;;;3.63;;
39674;SDS011;27790;50.840;4.386;2022-08-11T18:55:10;10.80;;;3.47;;
39674;SDS011;27790;50.840;4.386;2022-08-11T18:57:48;10.70;;;4.70;;
39674;SDS011;27790;50.840;4.386;2022-08-11T19:00:26;4.30;;;3.30;;
39674;SDS011;27790;50.840;4.386;2022-08-11T19:03:04;9.57;;;3.78;;
39674;SDS011;27790;50.840;4.386;2022-08-11T19:05:44;8.00;;;3.45;;
39674;SDS011;27790;50.840;4.386;2022-08-11T19:08:22;12.25;;;4.22;;
39674;SDS011;27790;50.840;4.386;2022-08-11T19:11:03;4.43;;;3.75;;
39674;SDS011;27790;50.840;4.386;2022-08-11T19:13:42;6.45;;;3.25;;
39674;SDS011;27790;50.840;4.386;2022-08-11T19:16:21;10.93;;;3.10;;